Terminal Aerodrome Forecast
Issued by NWS

Home | Current Version | Previous Version | Text Only | Print | Product List | Glossary On
Versions: 1 2 3 4 5 6 7 8 9 10 11 12 13 14 15 16 17 18 19
000
FTUS45 KLKN 291724
TAFELY
TAF
KELY 291724Z 2918/3018 VRB04KT P6SM SCT040 OVC080
     FM291900 32009KT P6SM VCSH SCT030 BKN060
     FM292100 32009KT P6SM VCTS SCT030 BKN050CB
     FM300300 35007KT P6SM -RA SCT020 BKN035
     FM300900 VRB04KT 5SM -RA SCT010 OVC020
     FM301700 01016G26KT 6SM -SHRA SCT020 BKN035=

USA.gov is the U.S. government's official web portal to all federal, state and local government web resources and services.